Time;durP1;ratioP1;P1;durP2;ratioP2;P2;SDS_P1;SDS_P2;PMS_P1;PMS_P2;Temp;Humidity;BMP_temperature;BMP_pressure;BME280_temperature;BME280_humidity;BME280_pressure;Samples;Min_cycle;Max_cycle;Signal;HPM_P1;HPM_P2
2022/10/25 00:01:48;;;;;;;8.83;6.17;;;13.40;99.90;;;;;;5112502;27;20955;-69
2022/10/25 00:04:14;;;;;;;12.10;5.93;;;13.40;99.90;;;;;;5112733;27;20493;-68
2022/10/25 00:06:42;;;;;;;11.03;6.07;;;13.40;99.90;;;;;;5111968;27;20468;-68
2022/10/25 00:09:09;;;;;;;13.40;5.80;;;13.50;99.90;;;;;;5112390;27;20461;-67
2022/10/25 00:11:36;;;;;;;12.07;6.13;;;13.50;99.90;;;;;;5113140;27;20449;-70
2022/10/25 00:14:05;;;;;;;6.63;5.93;;;13.50;99.90;;;;;;5115927;27;20468;-69
2022/10/25 00:16:35;;;;;;;8.23;5.80;;;13.50;99.90;;;;;;5112082;27;20468;-70
2022/10/25 00:19:04;;;;;;;7.60;5.97;;;13.50;99.90;;;;;;5112137;28;20525;-68
2022/10/25 00:21:32;;;;;;;8.13;5.97;;;13.50;99.90;;;;;;5111959;27;20517;-69
2022/10/25 00:23:59;;;;;;;8.53;6.20;;;13.50;99.90;;;;;;5112689;27;21005;-70
2022/10/25 00:26:28;;;;;;;8.07;6.60;;;13.60;99.90;;;;;;5116651;27;20526;-70
2022/10/25 00:28:55;;;;;;;8.23;6.00;;;13.60;99.90;;;;;;5114989;27;20492;-70
2022/10/25 00:31:22;;;;;;;6.90;5.87;;;13.60;99.90;;;;;;5111156;28;20522;-71
2022/10/25 00:33:49;;;;;;;8.90;6.17;;;13.60;99.90;;;;;;5109952;28;20468;-68
2022/10/25 00:36:20;;;;;;;8.50;6.77;;;13.60;99.90;;;;;;5112151;28;20773;-68
2022/10/25 00:38:47;;;;;;;8.50;5.70;;;13.60;99.90;;;;;;5110341;28;20533;-68
2022/10/25 00:41:16;;;;;;;6.70;6.00;;;13.60;99.90;;;;;;5114607;28;20799;-67
2022/10/25 00:43:46;;;;;;;8.83;6.13;;;13.60;99.90;;;;;;5112294;28;20972;-67
2022/10/25 00:46:20;;;;;;;10.27;6.23;;;13.60;99.90;;;;;;5114704;27;20452;-68
2022/10/25 00:48:53;;;;;;;7.97;5.87;;;13.50;99.90;;;;;;5110408;28;20929;-68
2022/10/25 00:51:24;;;;;;;10.53;6.57;;;13.60;99.90;;;;;;5109263;28;20528;-69
2022/10/25 00:53:51;;;;;;;8.53;6.33;;;13.60;99.90;;;;;;5115414;28;20824;-68
2022/10/25 00:56:22;;;;;;;13.47;6.73;;;13.60;99.90;;;;;;5111615;27;20491;-68
2022/10/25 00:58:55;;;;;;;5.77;5.23;;;13.60;99.90;;;;;;5110918;28;21032;-68
2022/10/25 01:01:23;;;;;;;11.63;6.10;;;13.60;99.90;;;;;;5110743;28;20465;-68
2022/10/25 01:03:52;;;;;;;10.73;5.23;;;13.70;99.90;;;;;;5108819;28;20464;-67
2022/10/25 01:06:26;;;;;;;5.93;5.43;;;13.70;99.90;;;;;;5112082;28;20469;-67
2022/10/25 01:08:55;;;;;;;5.70;5.20;;;13.80;99.90;;;;;;5109997;28;20460;-68
2022/10/25 01:11:22;;;;;;;8.07;4.83;;;13.80;99.90;;;;;;5114731;28;21020;-68
2022/10/25 01:13:49;;;;;;;10.20;5.50;;;14.00;99.90;;;;;;5115247;28;20817;-68
2022/10/25 01:16:23;;;;;;;13.27;5.50;;;14.00;99.90;;;;;;5107530;28;20492;-68
2022/10/25 01:19:01;;;;;;;13.03;5.43;;;14.00;99.90;;;;;;5112793;28;20472;-68
2022/10/25 01:21:47;;;;;;;11.70;5.53;;;14.00;99.90;;;;;;5112717;27;20472;-70
2022/10/25 01:24:45;;;;;;;10.60;6.10;;;14.00;99.90;;;;;;5107545;28;20812;-70
2022/10/25 01:27:51;;;;;;;11.73;6.50;;;14.00;99.90;;;;;;5107415;28;20489;-69
2022/10/25 01:30:21;;;;;;;9.10;5.97;;;14.00;99.90;;;;;;5024082;28;21073;-69
2022/10/25 01:33:05;;;;;;;13.40;6.10;;;13.90;99.90;;;;;;5096004;27;20797;-67
2022/10/25 01:35:38;;;;;;;13.60;5.63;;;13.90;99.90;;;;;;5114480;28;21013;-68
2022/10/25 01:38:18;;;;;;;9.17;5.40;;;14.00;99.90;;;;;;5115452;27;20994;-68
2022/10/25 01:40:56;;;;;;;6.03;5.27;;;14.00;99.90;;;;;;5113810;27;20468;-67
2022/10/25 01:43:33;;;;;;;8.90;5.33;;;14.00;99.90;;;;;;5117203;27;20467;-69
2022/10/25 01:46:08;;;;;;;11.23;5.17;;;13.90;99.90;;;;;;5116138;27;20464;-71
2022/10/25 01:48:41;;;;;;;7.60;5.43;;;14.00;99.90;;;;;;5118039;27;20849;-68
2022/10/25 01:51:11;;;;;;;14.27;5.57;;;14.00;99.90;;;;;;5116337;27;20460;-68
2022/10/25 01:53:45;;;;;;;8.70;5.50;;;14.00;99.90;;;;;;5113531;27;20483;-68
2022/10/25 01:56:18;;;;;;;7.90;5.10;;;14.10;99.90;;;;;;5112235;27;20562;-71
2022/10/25 01:58:53;;;;;;;6.83;5.30;;;14.10;99.90;;;;;;5113277;27;20522;-70
2022/10/25 02:01:29;;;;;;;11.37;5.63;;;14.20;99.90;;;;;;5115428;27;20986;-68
2022/10/25 02:04:03;;;;;;;7.90;5.27;;;14.10;99.90;;;;;;5114671;27;20554;-68
2022/10/25 02:06:38;;;;;;;5.60;5.03;;;14.10;99.90;;;;;;5118403;27;20464;-68
2022/10/25 02:09:08;;;;;;;5.93;5.53;;;14.00;99.90;;;;;;5116716;27;20524;-67
2022/10/25 02:11:36;;;;;;;8.90;5.37;;;14.00;99.90;;;;;;5113314;27;20467;-69
2022/10/25 02:14:12;;;;;;;6.33;5.83;;;13.90;99.90;;;;;;5115250;27;20460;-71
2022/10/25 02:16:44;;;;;;;6.10;5.13;;;13.90;99.90;;;;;;5114212;27;20600;-68
2022/10/25 02:19:16;;;;;;;9.10;5.47;;;13.90;99.90;;;;;;5113646;27;20956;-68
2022/10/25 02:21:46;;;;;;;7.30;5.50;;;13.90;99.90;;;;;;5113729;27;20461;-68
2022/10/25 02:24:16;;;;;;;8.23;6.43;;;13.90;99.90;;;;;;5114412;27;20465;-68
2022/10/25 02:26:46;;;;;;;6.10;5.27;;;13.90;99.90;;;;;;5114107;27;20517;-68
2022/10/25 02:29:17;;;;;;;7.57;6.23;;;13.90;99.90;;;;;;5110677;27;20449;-69
2022/10/25 02:31:45;;;;;;;6.50;6.00;;;13.80;99.90;;;;;;5113443;27;20498;-67
2022/10/25 02:34:13;;;;;;;5.70;5.20;;;13.80;99.90;;;;;;5112851;27;20461;-68
2022/10/25 02:36:40;;;;;;;7.87;5.70;;;13.80;99.90;;;;;;5113808;27;20529;-69
2022/10/25 02:39:07;;;;;;;7.17;5.10;;;13.80;99.90;;;;;;5118548;27;20457;-69
2022/10/25 02:41:34;;;;;;;8.60;5.10;;;13.80;99.90;;;;;;5113469;27;20453;-71
2022/10/25 02:44:01;;;;;;;9.60;5.60;;;13.90;99.90;;;;;;5116537;27;20468;-68
2022/10/25 02:46:28;;;;;;;6.20;5.20;;;13.90;99.90;;;;;;5115913;27;20457;-69
2022/10/25 02:48:55;;;;;;;10.33;5.73;;;13.90;99.90;;;;;;5113839;27;20875;-67
2022/10/25 02:51:24;;;;;;;9.60;5.30;;;13.90;99.90;;;;;;5113319;27;20897;-68
2022/10/25 02:53:51;;;;;;;8.17;4.97;;;13.90;99.90;;;;;;5114450;27;20465;-68
2022/10/25 02:56:20;;;;;;;6.33;5.20;;;14.00;99.90;;;;;;5113955;27;20481;-69
2022/10/25 02:58:49;;;;;;;7.70;4.97;;;14.10;99.90;;;;;;5116475;27;20818;-68
2022/10/25 03:01:17;;;;;;;6.10;5.00;;;14.10;99.90;;;;;;5110178;27;20465;-67
2022/10/25 03:03:44;;;;;;;8.17;5.63;;;14.10;99.90;;;;;;5109519;27;20460;-68
2022/10/25 03:06:12;;;;;;;5.87;4.67;;;14.20;99.90;;;;;;5111777;27;20595;-67
2022/10/25 03:08:42;;;;;;;7.90;5.00;;;14.20;99.90;;;;;;5114026;27;20971;-70
2022/10/25 03:11:10;;;;;;;6.73;5.23;;;14.20;99.90;;;;;;5114465;27;20468;-68
2022/10/25 03:13:38;;;;;;;8.30;5.27;;;14.30;99.90;;;;;;5117116;27;20464;-68
2022/10/25 03:16:06;;;;;;;10.23;5.17;;;14.30;99.90;;;;;;5112488;27;21010;-68
2022/10/25 03:18:33;;;;;;;5.57;4.50;;;14.30;99.90;;;;;;5116589;27;20456;-68
2022/10/25 03:21:02;;;;;;;7.00;5.10;;;14.30;99.90;;;;;;5111686;27;20506;-70
2022/10/25 03:23:30;;;;;;;7.57;5.10;;;14.30;99.90;;;;;;5111377;27;20561;-69
2022/10/25 03:26:00;;;;;;;6.50;5.13;;;14.30;99.90;;;;;;5112230;27;20461;-68
2022/10/25 03:28:27;;;;;;;11.83;5.40;;;14.30;99.90;;;;;;5115274;27;20514;-69
2022/10/25 03:30:54;;;;;;;6.57;5.57;;;14.30;99.90;;;;;;5101996;27;21013;-68
2022/10/25 03:33:21;;;;;;;5.27;4.77;;;14.30;99.90;;;;;;5114911;27;20474;-68
2022/10/25 03:35:50;;;;;;;7.30;5.23;;;14.30;99.90;;;;;;5112396;27;20485;-69
2022/10/25 03:38:18;;;;;;;11.10;6.50;;;14.30;99.90;;;;;;5110547;27;20489;-68
2022/10/25 03:40:46;;;;;;;10.27;6.03;;;14.20;99.90;;;;;;5114796;27;20452;-69
2022/10/25 03:43:14;;;;;;;5.47;5.17;;;14.30;99.90;;;;;;5113626;27;20530;-69
2022/10/25 03:45:41;;;;;;;13.80;5.40;;;14.30;99.90;;;;;;5111962;27;20457;-68
2022/10/25 03:48:08;;;;;;;6.10;5.53;;;14.30;99.90;;;;;;5113281;27;20501;-70
2022/10/25 03:50:35;;;;;;;11.43;6.00;;;14.30;99.90;;;;;;5106342;27;20460;-68
2022/10/25 03:53:03;;;;;;;7.00;5.53;;;14.30;99.90;;;;;;5113350;27;20476;-69
2022/10/25 03:55:30;;;;;;;7.57;5.37;;;14.30;99.90;;;;;;5114330;27;20480;-68
2022/10/25 03:57:57;;;;;;;11.17;6.40;;;14.30;99.90;;;;;;5112064;27;20457;-68
2022/10/25 04:00:27;;;;;;;11.43;6.20;;;14.30;99.90;;;;;;5111346;27;20453;-68
2022/10/25 04:02:55;;;;;;;9.60;5.47;;;14.30;99.90;;;;;;5106896;27;20463;-67
2022/10/25 04:05:22;;;;;;;9.87;5.90;;;14.30;99.90;;;;;;5108819;27;20480;-68
2022/10/25 04:07:49;;;;;;;8.77;5.87;;;14.30;99.90;;;;;;5109212;27;20461;-68
2022/10/25 04:10:18;;;;;;;12.63;6.27;;;14.30;99.90;;;;;;5110809;27;20461;-67
2022/10/25 04:12:44;;;;;;;11.77;6.40;;;14.30;99.90;;;;;;5112034;27;20454;-69
2022/10/25 04:15:11;;;;;;;7.17;5.50;;;14.30;99.90;;;;;;5111809;27;20671;-68
2022/10/25 04:17:40;;;;;;;10.80;6.00;;;14.30;99.90;;;;;;5113771;27;20980;-68
2022/10/25 04:20:07;;;;;;;10.93;6.40;;;14.30;99.90;;;;;;5112772;27;20456;-68
2022/10/25 04:22:34;;;;;;;11.30;6.50;;;14.30;99.90;;;;;;5110968;27;20548;-68
2022/10/25 04:25:01;;;;;;;12.63;6.90;;;14.20;99.90;;;;;;5104870;27;20488;-68
2022/10/25 04:27:28;;;;;;;7.30;6.03;;;14.20;99.90;;;;;;5108301;28;20569;-68
2022/10/25 04:29:55;;;;;;;18.77;7.13;;;14.20;99.90;;;;;;5104129;27;20488;-69
2022/10/25 04:32:22;;;;;;;12.73;6.30;;;14.20;99.90;;;;;;5105649;28;20493;-70
2022/10/25 04:34:50;;;;;;;8.00;5.80;;;14.30;99.90;;;;;;5110882;28;20463;-71
2022/10/25 04:37:17;;;;;;;6.50;5.97;;;14.30;99.90;;;;;;5114222;28;20836;-68
2022/10/25 04:39:45;;;;;;;11.87;7.17;;;14.30;99.90;;;;;;5113969;28;20456;-71
2022/10/25 04:42:12;;;;;;;8.40;6.23;;;14.30;99.90;;;;;;5106972;28;20480;-69
2022/10/25 04:44:39;;;;;;;6.93;6.43;;;14.30;99.90;;;;;;5107012;28;20507;-71
2022/10/25 04:47:06;;;;;;;9.93;7.20;;;14.20;99.90;;;;;;5107638;27;20514;-71
2022/10/25 04:49:33;;;;;;;14.77;7.93;;;14.20;99.90;;;;;;5110670;28;21011;-69
2022/10/25 04:52:01;;;;;;;8.23;7.50;;;14.10;99.90;;;;;;5093636;28;20464;-68
2022/10/25 04:54:28;;;;;;;7.07;6.37;;;14.10;99.90;;;;;;5102945;28;20551;-68
2022/10/25 04:56:55;;;;;;;12.70;7.13;;;14.10;99.90;;;;;;5109652;27;20489;-69
2022/10/25 04:59:23;;;;;;;8.97;6.40;;;14.00;99.90;;;;;;5105184;27;20535;-69
2022/10/25 05:01:50;;;;;;;8.43;6.10;;;14.00;99.90;;;;;;5112902;28;20949;-70
2022/10/25 05:04:18;;;;;;;8.03;5.70;;;14.00;99.90;;;;;;5110504;28;20544;-70
2022/10/25 05:06:45;;;;;;;7.63;6.90;;;14.00;99.90;;;;;;5097682;28;20452;-68
2022/10/25 05:09:13;;;;;;;7.27;6.67;;;13.90;99.90;;;;;;5089535;28;20473;-68
2022/10/25 05:11:41;;;;;;;7.27;6.47;;;13.90;99.90;;;;;;5111896;27;20460;-68
2022/10/25 05:14:08;;;;;;;10.20;6.60;;;13.80;99.90;;;;;;5121559;27;20453;-68
2022/10/25 05:16:38;;;;;;;7.97;7.13;;;13.70;99.90;;;;;;5112620;27;21093;-69
2022/10/25 05:19:05;;;;;;;12.07;6.83;;;13.70;99.90;;;;;;5113331;27;20492;-71
2022/10/25 05:21:31;;;;;;;7.30;6.57;;;13.60;99.90;;;;;;5096691;27;20589;-68
2022/10/25 05:24:00;;;;;;;9.73;6.70;;;13.60;99.90;;;;;;5107855;27;20494;-68
2022/10/25 05:26:30;;;;;;;7.70;6.00;;;13.50;99.90;;;;;;5108294;28;20807;-69
2022/10/25 05:28:57;;;;;;;8.63;5.90;;;13.50;99.90;;;;;;5105709;27;20495;-69
2022/10/25 05:31:26;;;;;;;8.23;6.23;;;13.50;99.90;;;;;;5116229;27;20464;-69
2022/10/25 05:33:54;;;;;;;7.37;6.60;;;13.50;99.90;;;;;;5104880;27;20560;-68
2022/10/25 05:36:21;;;;;;;10.77;6.50;;;13.50;99.90;;;;;;5118379;27;20870;-68
2022/10/25 05:38:48;;;;;;;13.70;6.63;;;13.40;99.90;;;;;;5112092;27;20533;-69
2022/10/25 05:41:17;;;;;;;7.70;6.20;;;13.30;99.90;;;;;;5116539;27;20453;-70
2022/10/25 05:43:46;;;;;;;8.90;5.93;;;13.30;99.90;;;;;;5115225;27;20476;-68
2022/10/25 05:46:14;;;;;;;10.93;6.50;;;13.30;99.90;;;;;;5107372;27;20468;-68
2022/10/25 05:48:42;;;;;;;7.37;6.50;;;13.30;99.90;;;;;;5113241;27;20814;-68
2022/10/25 05:51:17;;;;;;;10.10;6.70;;;13.30;99.90;;;;;;5108851;27;20468;-69
2022/10/25 05:53:45;;;;;;;8.17;7.47;;;13.30;99.90;;;;;;5109907;27;20459;-71
2022/10/25 05:56:13;;;;;;;8.80;6.47;;;13.30;99.90;;;;;;5113853;27;20601;-68
2022/10/25 05:58:40;;;;;;;9.00;7.30;;;13.20;99.90;;;;;;5113781;27;20457;-69
2022/10/25 06:01:10;;;;;;;14.63;6.97;;;13.20;99.90;;;;;;5106539;27;20460;-69
2022/10/25 06:03:37;;;;;;;8.33;7.40;;;13.20;99.90;;;;;;5101200;27;20471;-68
2022/10/25 06:06:06;;;;;;;13.93;8.07;;;13.20;99.90;;;;;;5115040;27;20457;-68
2022/10/25 06:08:34;;;;;;;14.20;7.50;;;13.20;99.90;;;;;;5112650;27;20841;-69
2022/10/25 06:11:02;;;;;;;9.83;6.40;;;13.10;99.90;;;;;;5115033;27;20491;-69
2022/10/25 06:13:30;;;;;;;11.00;6.33;;;13.10;99.90;;;;;;5114077;27;20464;-69
2022/10/25 06:15:57;;;;;;;12.23;6.87;;;13.10;99.90;;;;;;5111921;27;20540;-69
2022/10/25 06:18:26;;;;;;;8.43;7.43;;;13.00;99.90;;;;;;5109825;27;20765;-68
2022/10/25 06:20:54;;;;;;;8.70;7.17;;;13.00;99.90;;;;;;5106457;27;20465;-69
2022/10/25 06:23:20;;;;;;;8.63;6.80;;;12.90;99.90;;;;;;5101401;27;20462;-71
2022/10/25 06:25:47;;;;;;;11.03;7.00;;;12.90;99.90;;;;;;5101307;27;20796;-69
2022/10/25 06:28:14;;;;;;;8.00;7.20;;;12.90;99.90;;;;;;5113130;27;21069;-68
2022/10/25 06:30:42;;;;;;;9.90;7.00;;;13.00;99.90;;;;;;5107272;27;20465;-70
2022/10/25 06:33:08;;;;;;;14.23;7.27;;;13.00;99.90;;;;;;5106178;27;20510;-68
2022/10/25 06:35:36;;;;;;;12.20;6.70;;;13.00;99.90;;;;;;5111327;27;20456;-69
2022/10/25 06:38:04;;;;;;;9.37;7.77;;;13.00;99.90;;;;;;5110042;27;20500;-69
2022/10/25 06:40:31;;;;;;;8.47;7.60;;;12.90;99.90;;;;;;5098466;27;20453;-69
2022/10/25 06:42:57;;;;;;;9.47;6.60;;;13.00;99.90;;;;;;5107109;27;20461;-68
2022/10/25 06:45:25;;;;;;;10.93;7.03;;;13.00;99.90;;;;;;5104827;27;20522;-68
2022/10/25 06:47:51;;;;;;;9.10;6.13;;;13.10;99.90;;;;;;5108338;27;20750;-69
2022/10/25 06:50:18;;;;;;;6.70;6.10;;;13.10;99.90;;;;;;5112746;27;20851;-69
2022/10/25 06:52:46;;;;;;;11.87;6.13;;;13.20;99.90;;;;;;5098829;27;20529;-68
2022/10/25 06:55:13;;;;;;;9.43;5.80;;;13.30;99.90;;;;;;5111191;27;20472;-70
2022/10/25 06:57:40;;;;;;;6.90;5.73;;;13.30;99.90;;;;;;5105319;27;20602;-69
2022/10/25 07:00:08;;;;;;;8.93;6.17;;;13.40;99.90;;;;;;5103735;27;20461;-68
2022/10/25 07:02:35;;;;;;;12.67;5.83;;;13.50;99.90;;;;;;5105942;27;20465;-70
2022/10/25 07:05:02;;;;;;;6.50;5.70;;;13.60;99.90;;;;;;5100448;27;20484;-68
2022/10/25 07:07:28;;;;;;;14.10;6.17;;;13.70;99.90;;;;;;5109396;27;20472;-68
2022/10/25 07:09:57;;;;;;;9.10;6.00;;;13.80;99.90;;;;;;5106579;27;20521;-69
2022/10/25 07:12:24;;;;;;;9.07;5.43;;;14.00;99.90;;;;;;5109115;27;20560;-69
2022/10/25 07:14:51;;;;;;;9.33;5.70;;;14.00;99.90;;;;;;5100087;27;20453;-70
2022/10/25 07:17:18;;;;;;;9.20;5.13;;;14.10;99.90;;;;;;5098674;27;20541;-69
2022/10/25 07:19:45;;;;;;;12.23;5.93;;;14.20;99.90;;;;;;5097801;27;20468;-71
2022/10/25 07:22:11;;;;;;;8.40;5.87;;;14.30;99.90;;;;;;5096526;27;20477;-69
2022/10/25 07:24:38;;;;;;;6.93;5.97;;;14.40;99.90;;;;;;5084571;27;20700;-69
2022/10/25 07:27:07;;;;;;;11.97;6.40;;;14.40;99.90;;;;;;5099233;27;20453;-69
2022/10/25 07:29:33;;;;;;;8.67;6.60;;;14.50;99.90;;;;;;5104017;27;20836;-67
2022/10/25 07:32:00;;;;;;;8.83;6.30;;;14.50;99.90;;;;;;5099764;27;20465;-70
2022/10/25 07:34:27;;;;;;;9.40;7.27;;;14.50;99.90;;;;;;5093253;27;20843;-71
2022/10/25 07:36:54;;;;;;;11.63;7.10;;;14.50;99.90;;;;;;5103784;27;20483;-70
2022/10/25 07:39:21;;;;;;;7.07;6.33;;;14.50;99.90;;;;;;5106645;27;20468;-68
2022/10/25 07:41:48;;;;;;;15.07;6.57;;;14.50;99.90;;;;;;5108359;27;20465;-70
2022/10/25 07:44:17;;;;;;;8.53;7.07;;;14.40;99.90;;;;;;5102690;27;20554;-71
2022/10/25 07:46:44;;;;;;;7.63;6.67;;;14.50;99.90;;;;;;5104733;27;20468;-69
2022/10/25 07:49:11;;;;;;;7.07;6.37;;;14.50;99.90;;;;;;5099555;27;20462;-69
2022/10/25 07:51:38;;;;;;;7.90;7.30;;;14.60;99.90;;;;;;5108515;27;20487;-72
2022/10/25 07:54:05;;;;;;;10.50;6.80;;;14.70;99.90;;;;;;5109383;27;20457;-69
2022/10/25 07:56:32;;;;;;;7.57;6.80;;;14.80;99.90;;;;;;5109912;27;20556;-68
2022/10/25 07:58:58;;;;;;;8.40;7.60;;;14.90;99.90;;;;;;5102216;27;20467;-68
2022/10/25 08:01:28;;;;;;;8.90;7.57;;;14.90;99.90;;;;;;5099782;27;20469;-69
2022/10/25 08:03:55;;;;;;;8.10;7.30;;;15.00;99.90;;;;;;5106080;27;20486;-69
2022/10/25 08:06:24;;;;;;;7.70;7.03;;;15.10;99.90;;;;;;5105217;27;20460;-69
2022/10/25 08:08:50;;;;;;;12.23;8.23;;;15.20;99.90;;;;;;5104019;27;20547;-70
2022/10/25 08:11:18;;;;;;;11.37;7.73;;;15.30;99.90;;;;;;5104689;27;20469;-69
2022/10/25 08:13:47;;;;;;;14.47;7.90;;;15.40;99.90;;;;;;5099264;27;20469;-71
2022/10/25 08:16:14;;;;;;;10.83;8.23;;;15.50;99.90;;;;;;5101327;27;20559;-71
2022/10/25 08:18:43;;;;;;;11.57;8.63;;;15.60;99.90;;;;;;5106299;28;20495;-69
2022/10/25 08:21:10;;;;;;;12.60;8.43;;;15.50;99.90;;;;;;5104355;27;20453;-70
2022/10/25 08:23:37;;;;;;;8.27;7.77;;;15.70;99.90;;;;;;5097920;27;20512;-71
2022/10/25 08:26:05;;;;;;;13.83;8.20;;;15.70;99.90;;;;;;5105890;27;20456;-69
2022/10/25 08:28:33;;;;;;;8.97;8.10;;;15.50;99.90;;;;;;5105830;27;20492;-71
2022/10/25 08:31:00;;;;;;;9.60;8.80;;;15.50;99.90;;;;;;5094413;28;20664;-68
2022/10/25 08:33:27;;;;;;;12.83;8.80;;;15.50;99.90;;;;;;5100951;28;20460;-68
2022/10/25 08:35:59;;;;;;;8.70;8.10;;;15.30;99.90;;;;;;5096806;28;20473;-71
2022/10/25 08:38:25;;;;;;;9.37;8.53;;;15.30;99.90;;;;;;5099843;28;20488;-70
2022/10/25 08:40:59;;;;;;;10.67;9.30;;;15.30;99.90;;;;;;5100594;28;20449;-69
2022/10/25 08:43:44;;;;;;;14.07;8.50;;;15.20;99.90;;;;;;5106877;28;20473;-69
2022/10/25 08:46:16;;;;;;;11.00;9.40;;;15.10;99.90;;;;;;5105644;28;20464;-71
2022/10/25 08:48:48;;;;;;;12.93;9.20;;;15.20;99.90;;;;;;5108587;27;20461;-69
2022/10/25 08:51:29;;;;;;;10.00;9.20;;;15.10;99.90;;;;;;5104928;27;20460;-70
2022/10/25 08:54:01;;;;;;;9.13;8.63;;;15.10;99.90;;;;;;5105043;27;20465;-70
2022/10/25 08:56:30;;;;;;;9.83;9.10;;;15.10;99.90;;;;;;5108614;27;20834;-69
2022/10/25 08:59:00;;;;;;;13.90;8.53;;;15.20;99.90;;;;;;5105259;27;20489;-69
2022/10/25 09:01:29;;;;;;;9.43;8.77;;;15.20;99.90;;;;;;5107355;27;20464;-69
2022/10/25 09:03:58;;;;;;;11.23;9.30;;;15.20;99.90;;;;;;5111023;27;20493;-69
2022/10/25 09:06:34;;;;;;;16.43;9.50;;;15.20;99.90;;;;;;5114083;27;20468;-71
2022/10/25 09:09:16;;;;;;;9.20;8.53;;;15.20;99.90;;;;;;5107615;27;20978;-69
2022/10/25 09:12:02;;;;;;;11.20;10.10;;;15.30;99.90;;;;;;5111087;27;20505;-68
2022/10/25 09:14:36;;;;;;;10.73;9.83;;;15.40;99.90;;;;;;5110911;27;20529;-69
2022/10/25 09:17:12;;;;;;;10.43;9.70;;;15.60;99.90;;;;;;5110063;27;20460;-68
2022/10/25 09:19:44;;;;;;;12.17;10.57;;;15.70;99.90;;;;;;5108023;27;20456;-69
2022/10/25 09:22:19;;;;;;;12.17;10.87;;;15.60;99.90;;;;;;5106465;27;20857;-71
2022/10/25 09:24:54;;;;;;;11.20;10.50;;;15.70;99.90;;;;;;5113176;27;20475;-70
2022/10/25 09:27:26;;;;;;;12.60;11.23;;;15.70;99.90;;;;;;5113808;27;20544;-69
2022/10/25 09:29:58;;;;;;;12.70;11.63;;;15.60;99.90;;;;;;5108210;27;21115;-69
2022/10/25 09:32:31;;;;;;;13.93;11.17;;;15.70;99.90;;;;;;5109030;27;20466;-70
2022/10/25 09:34:59;;;;;;;12.20;11.20;;;15.80;99.90;;;;;;5108800;27;20555;-69
2022/10/25 09:37:32;;;;;;;12.00;11.10;;;15.80;99.90;;;;;;5105388;27;20481;-70
2022/10/25 09:40:03;;;;;;;12.00;11.17;;;15.90;99.90;;;;;;5105034;27;21082;-70
2022/10/25 09:42:34;;;;;;;12.10;11.30;;;15.90;99.90;;;;;;5106128;27;20788;-68
2022/10/25 09:45:05;;;;;;;12.20;11.40;;;16.00;99.90;;;;;;5102494;27;20449;-69
2022/10/25 09:47:40;;;;;;;11.80;11.10;;;16.00;99.90;;;;;;5104220;27;20465;-69
2022/10/25 09:50:13;;;;;;;12.83;11.70;;;15.90;99.90;;;;;;5101610;27;20809;-70
2022/10/25 09:52:59;;;;;;;12.20;11.30;;;15.80;99.90;;;;;;5106815;27;20469;-68
2022/10/25 09:55:34;;;;;;;12.10;11.30;;;15.80;99.90;;;;;;5093263;28;20840;-68
2022/10/25 09:58:01;;;;;;;12.20;10.37;;;15.80;99.90;;;;;;5100362;27;20484;-70
2022/10/25 10:00:29;;;;;;;11.73;10.70;;;15.90;99.90;;;;;;5114723;27;20955;-69
2022/10/25 10:02:56;;;;;;;11.70;10.67;;;16.00;99.90;;;;;;5107497;27;21040;-69
2022/10/25 10:05:23;;;;;;;11.67;11.00;;;16.20;99.90;;;;;;5105296;27;20458;-68
2022/10/25 10:07:53;;;;;;;12.43;11.33;;;16.20;99.90;;;;;;5104295;27;20536;-69
2022/10/25 10:10:23;;;;;;;11.90;10.80;;;16.30;99.90;;;;;;5105725;27;20475;-70
2022/10/25 10:12:56;;;;;;;12.27;11.33;;;16.30;99.90;;;;;;5101557;27;20963;-69
2022/10/25 10:15:27;;;;;;;16.37;11.40;;;16.70;99.90;;;;;;5105961;27;20534;-69
2022/10/25 10:18:19;;;;;;;12.80;11.77;;;17.10;99.90;;;;;;5107108;27;20994;-69
2022/10/25 10:20:57;;;;;;;13.27;12.30;;;17.20;99.90;;;;;;5096633;27;20552;-69
2022/10/25 10:23:27;;;;;;;12.53;11.63;;;17.30;99.90;;;;;;5099557;27;20476;-71
2022/10/25 10:25:56;;;;;;;16.63;11.90;;;16.90;99.90;;;;;;5105398;27;20683;-69
2022/10/25 10:28:23;;;;;;;13.80;12.53;;;16.80;99.90;;;;;;5107856;27;20484;-69
2022/10/25 10:30:54;;;;;;;12.77;11.70;;;16.90;99.90;;;;;;5104596;27;20463;-70
2022/10/25 10:33:24;;;;;;;12.10;11.40;;;16.90;99.90;;;;;;5108830;27;20457;-69
2022/10/25 10:35:54;;;;;;;12.47;11.30;;;16.80;99.90;;;;;;5104512;28;20815;-70
2022/10/25 10:38:28;;;;;;;13.70;12.07;;;16.60;99.90;;;;;;5101834;27;20579;-70
2022/10/25 10:41:13;;;;;;;13.03;12.10;;;16.40;99.90;;;;;;5105703;27;20487;-70
2022/10/25 10:43:41;;;;;;;12.57;11.57;;;16.30;99.90;;;;;;5106424;27;20457;-69
2022/10/25 10:46:11;;;;;;;13.90;12.40;;;16.20;99.90;;;;;;5103731;27;20505;-70
2022/10/25 10:48:41;;;;;;;11.70;11.07;;;16.20;99.90;;;;;;5105482;27;20450;-70
2022/10/25 10:51:10;;;;;;;12.50;11.43;;;16.90;99.90;;;;;;5108600;27;20441;-71
2022/10/25 10:53:39;;;;;;;12.13;11.13;;;17.30;99.90;;;;;;5111147;27;20461;-71
2022/10/25 10:56:07;;;;;;;15.10;12.30;;;16.90;99.90;;;;;;5112637;27;20468;-69
2022/10/25 10:58:37;;;;;;;12.63;12.03;;;17.20;99.90;;;;;;5098332;27;20531;-70
2022/10/25 11:01:07;;;;;;;13.43;12.53;;;17.20;99.90;;;;;;5106582;27;20821;-69
2022/10/25 11:03:48;;;;;;;14.17;13.07;;;17.00;99.90;;;;;;5107834;27;20504;-69
2022/10/25 11:06:18;;;;;;;15.47;13.87;;;16.60;99.90;;;;;;5104882;27;20828;-70
2022/10/25 11:08:48;;;;;;;13.33;12.50;;;16.50;99.90;;;;;;5107135;27;20466;-69
2022/10/25 11:11:18;;;;;;;12.57;11.30;;;16.30;99.90;;;;;;5106030;27;21050;-69
2022/10/25 11:13:52;;;;;;;12.40;11.17;;;16.50;99.90;;;;;;5113427;27;20844;-69
2022/10/25 11:16:38;;;;;;;12.57;11.33;;;17.30;99.90;;;;;;5109128;27;20514;-68
2022/10/25 11:19:32;;;;;;;12.60;11.70;;;17.80;99.90;;;;;;5104649;27;20481;-70
2022/10/25 11:22:24;;;;;;;12.83;11.80;;;18.30;99.90;;;;;;5088067;27;20460;-72
2022/10/25 11:25:04;;;;;;;13.27;12.27;;;18.80;99.90;;;;;;5097144;28;20469;-70
2022/10/25 11:27:43;;;;;;;13.67;12.87;;;19.10;99.90;;;;;;5103404;27;20496;-70
2022/10/25 11:30:14;;;;;;;13.90;12.70;;;18.90;99.90;;;;;;5104771;27;21147;-69
2022/10/25 11:33:04;;;;;;;14.10;12.93;;;19.00;99.90;;;;;;5108649;27;20535;-71
2022/10/25 11:35:44;;;;;;;14.27;13.17;;;19.00;99.90;;;;;;5109642;27;20464;-69
2022/10/25 11:38:20;;;;;;;14.23;13.13;;;19.60;99.90;;;;;;5112328;27;20480;-69
2022/10/25 11:40:59;;;;;;;14.13;13.20;;;19.90;99.90;;;;;;5112764;27;20592;-69
2022/10/25 11:43:43;;;;;;;14.37;13.40;;;19.80;99.90;;;;;;5097328;27;20722;-72
2022/10/25 11:46:16;;;;;;;13.97;12.97;;;20.20;99.90;;;;;;5105188;27;20465;-69
2022/10/25 11:49:04;;;;;;;14.00;13.10;;;20.00;99.90;;;;;;5107788;27;20901;-69
2022/10/25 11:51:43;;;;;;;14.93;13.77;;;19.60;99.90;;;;;;5104974;27;20452;-69
2022/10/25 11:54:24;;;;;;;14.50;13.40;;;19.90;99.90;;;;;;5108568;27;20457;-71
2022/10/25 11:57:02;;;;;;;15.10;13.70;;;20.40;99.90;;;;;;5108717;27;21057;-70
2022/10/25 11:59:39;;;;;;;14.87;13.87;;;20.30;99.90;;;;;;5110309;27;20517;-69
2022/10/25 12:02:22;;;;;;;14.17;13.23;;;20.40;99.90;;;;;;5098606;28;20460;-69
2022/10/25 12:04:59;;;;;;;14.37;13.47;;;20.30;99.90;;;;;;5102232;27;20468;-69
2022/10/25 12:07:32;;;;;;;15.20;14.20;;;19.80;99.90;;;;;;5105150;28;20978;-69
2022/10/25 12:10:07;;;;;;;14.70;13.80;;;19.80;99.90;;;;;;5100602;27;20530;-69
2022/10/25 12:12:42;;;;;;;14.50;13.60;;;20.00;99.90;;;;;;5106733;27;20532;-69
2022/10/25 12:15:16;;;;;;;14.00;13.30;;;19.90;99.90;;;;;;5103950;27;20460;-72
2022/10/25 12:17:43;;;;;;;13.80;13.00;;;19.90;99.90;;;;;;5107951;27;20510;-69
2022/10/25 12:20:20;;;;;;;13.97;13.07;;;20.40;99.90;;;;;;5105452;28;20843;-69
2022/10/25 12:22:50;;;;;;;14.40;13.53;;;21.20;99.90;;;;;;5105451;27;20518;-69
2022/10/25 12:25:23;;;;;;;15.03;13.67;;;22.00;99.90;;;;;;5095664;27;20968;-68
2022/10/25 12:28:02;;;;;;;15.40;14.30;;;22.20;99.90;;;;;;5104129;27;20485;-69
2022/10/25 12:30:32;;;;;;;14.80;14.00;;;22.30;99.90;;;;;;5102117;27;20461;-68
2022/10/25 12:33:07;;;;;;;15.37;14.47;;;22.50;99.90;;;;;;5108046;28;20483;-68
2022/10/25 12:35:39;;;;;;;16.00;14.77;;;22.00;99.90;;;;;;5108151;28;20529;-68
2022/10/25 12:38:11;;;;;;;15.10;14.23;;;21.30;99.90;;;;;;5101970;28;21013;-71
2022/10/25 12:40:43;;;;;;;15.03;14.13;;;21.00;99.90;;;;;;5106037;28;21066;-69
2022/10/25 12:43:19;;;;;;;15.00;14.20;;;21.50;99.90;;;;;;5108703;28;20462;-70
2022/10/25 12:46:26;;;;;;;14.20;13.40;;;21.10;99.90;;;;;;5109215;28;20465;-67
2022/10/25 12:49:20;;;;;;;14.77;13.83;;;20.80;99.90;;;;;;5104893;28;20466;-72
2022/10/25 12:52:16;;;;;;;15.17;14.37;;;20.80;99.90;;;;;;5099873;28;20469;-67
2022/10/25 12:55:12;;;;;;;16.20;15.10;;;20.40;99.90;;;;;;5105181;28;20943;-67
2022/10/25 12:57:48;;;;;;;14.93;14.13;;;19.90;99.90;;;;;;5090346;28;20472;-67